sensor_id;sensor_type;location;lat;lon;timestamp;P1;durP1;ratioP1;P2;durP2;ratioP2
8708;SDS011;4391;48.678;9.280;2023-05-29T00:00:57;10.57;;;3.38;;
8708;SDS011;4391;48.678;9.280;2023-05-29T00:03:26;8.57;;;2.90;;
8708;SDS011;4391;48.678;9.280;2023-05-29T00:05:53;8.13;;;2.72;;
8708;SDS011;4391;48.678;9.280;2023-05-29T00:08:20;9.13;;;3.20;;
8708;SDS011;4391;48.678;9.280;2023-05-29T00:10:47;9.07;;;2.92;;
8708;SDS011;4391;48.678;9.280;2023-05-29T00:13:14;9.35;;;3.70;;
8708;SDS011;4391;48.678;9.280;2023-05-29T00:15:40;8.50;;;3.07;;
8708;SDS011;4391;48.678;9.280;2023-05-29T00:18:07;8.25;;;3.22;;
8708;SDS011;4391;48.678;9.280;2023-05-29T00:20:35;7.13;;;3.03;;
8708;SDS011;4391;48.678;9.280;2023-05-29T00:23:03;7.18;;;2.85;;
8708;SDS011;4391;48.678;9.280;2023-05-29T00:25:31;9.07;;;3.13;;
8708;SDS011;4391;48.678;9.280;2023-05-29T00:27:58;6.73;;;3.00;;
8708;SDS011;4391;48.678;9.280;2023-05-29T00:30:25;7.82;;;3.03;;
8708;SDS011;4391;48.678;9.280;2023-05-29T00:32:51;7.35;;;3.10;;
8708;SDS011;4391;48.678;9.280;2023-05-29T00:35:19;7.63;;;3.15;;
8708;SDS011;4391;48.678;9.280;2023-05-29T00:37:47;7.38;;;3.40;;
8708;SDS011;4391;48.678;9.280;2023-05-29T00:40:14;7.70;;;3.17;;
8708;SDS011;4391;48.678;9.280;2023-05-29T00:42:41;9.57;;;3.10;;
8708;SDS011;4391;48.678;9.280;2023-05-29T00:45:08;9.25;;;3.40;;
8708;SDS011;4391;48.678;9.280;2023-05-29T00:47:35;8.55;;;3.28;;
8708;SDS011;4391;48.678;9.280;2023-05-29T00:50:03;8.75;;;2.97;;
8708;SDS011;4391;48.678;9.280;2023-05-29T00:52:30;8.80;;;3.30;;
8708;SDS011;4391;48.678;9.280;2023-05-29T00:54:59;8.57;;;3.40;;
8708;SDS011;4391;48.678;9.280;2023-05-29T00:57:28;7.90;;;3.17;;
8708;SDS011;4391;48.678;9.280;2023-05-29T00:59:55;9.50;;;3.38;;
8708;SDS011;4391;48.678;9.280;2023-05-29T01:02:22;8.45;;;3.38;;
8708;SDS011;4391;48.678;9.280;2023-05-29T01:04:49;8.50;;;3.60;;
8708;SDS011;4391;48.678;9.280;2023-05-29T01:07:19;8.48;;;3.22;;
8708;SDS011;4391;48.678;9.280;2023-05-29T01:09:46;11.20;;;3.75;;
8708;SDS011;4391;48.678;9.280;2023-05-29T01:12:16;11.27;;;3.83;;
8708;SDS011;4391;48.678;9.280;2023-05-29T01:14:57;9.82;;;3.70;;
8708;SDS011;4391;48.678;9.280;2023-05-29T01:17:47;9.30;;;3.10;;
8708;SDS011;4391;48.678;9.280;2023-05-29T01:20:27;8.65;;;3.20;;
8708;SDS011;4391;48.678;9.280;2023-05-29T01:26:06;10.82;;;3.55;;
8708;SDS011;4391;48.678;9.280;2023-05-29T01:28:52;10.43;;;3.72;;
8708;SDS011;4391;48.678;9.280;2023-05-29T01:31:23;8.47;;;3.50;;
8708;SDS011;4391;48.678;9.280;2023-05-29T01:33:52;9.68;;;3.50;;
8708;SDS011;4391;48.678;9.280;2023-05-29T01:36:19;8.63;;;3.60;;
8708;SDS011;4391;48.678;9.280;2023-05-29T01:38:46;9.65;;;3.47;;
8708;SDS011;4391;48.678;9.280;2023-05-29T01:41:14;11.13;;;3.58;;
8708;SDS011;4391;48.678;9.280;2023-05-29T01:43:42;9.37;;;3.50;;
8708;SDS011;4391;48.678;9.280;2023-05-29T01:46:11;11.32;;;4.05;;
8708;SDS011;4391;48.678;9.280;2023-05-29T01:48:39;8.73;;;3.17;;
8708;SDS011;4391;48.678;9.280;2023-05-29T01:51:07;9.30;;;3.40;;
8708;SDS011;4391;48.678;9.280;2023-05-29T01:53:34;12.07;;;3.42;;
8708;SDS011;4391;48.678;9.280;2023-05-29T01:56:01;9.60;;;3.77;;
8708;SDS011;4391;48.678;9.280;2023-05-29T01:58:28;9.50;;;3.05;;
8708;SDS011;4391;48.678;9.280;2023-05-29T02:00:57;8.23;;;3.17;;
8708;SDS011;4391;48.678;9.280;2023-05-29T02:03:25;9.30;;;3.45;;
8708;SDS011;4391;48.678;9.280;2023-05-29T02:05:54;10.88;;;3.85;;
8708;SDS011;4391;48.678;9.280;2023-05-29T02:08:21;7.27;;;3.30;;
8708;SDS011;4391;48.678;9.280;2023-05-29T02:10:48;8.45;;;3.17;;
8708;SDS011;4391;48.678;9.280;2023-05-29T02:13:15;10.38;;;3.75;;
8708;SDS011;4391;48.678;9.280;2023-05-29T02:15:42;9.07;;;3.60;;
8708;SDS011;4391;48.678;9.280;2023-05-29T02:18:09;10.80;;;3.85;;
8708;SDS011;4391;48.678;9.280;2023-05-29T02:20:39;9.33;;;3.60;;
8708;SDS011;4391;48.678;9.280;2023-05-29T02:23:07;8.90;;;3.53;;
8708;SDS011;4391;48.678;9.280;2023-05-29T02:25:35;8.30;;;3.58;;
8708;SDS011;4391;48.678;9.280;2023-05-29T02:28:02;9.55;;;3.63;;
8708;SDS011;4391;48.678;9.280;2023-05-29T02:30:29;9.60;;;3.95;;
8708;SDS011;4391;48.678;9.280;2023-05-29T02:32:56;8.90;;;3.50;;
8708;SDS011;4391;48.678;9.280;2023-05-29T02:35:23;9.30;;;3.53;;
8708;SDS011;4391;48.678;9.280;2023-05-29T02:37:52;8.25;;;3.70;;
8708;SDS011;4391;48.678;9.280;2023-05-29T02:40:19;10.95;;;3.90;;
8708;SDS011;4391;48.678;9.280;2023-05-29T02:42:46;10.23;;;4.00;;
8708;SDS011;4391;48.678;9.280;2023-05-29T02:45:13;12.90;;;3.80;;
8708;SDS011;4391;48.678;9.280;2023-05-29T02:47:40;10.30;;;3.80;;
8708;SDS011;4391;48.678;9.280;2023-05-29T02:50:07;12.00;;;3.47;;
8708;SDS011;4391;48.678;9.280;2023-05-29T02:52:34;7.90;;;3.78;;
8708;SDS011;4391;48.678;9.280;2023-05-29T02:55:04;8.18;;;3.78;;
8708;SDS011;4391;48.678;9.280;2023-05-29T02:57:31;7.97;;;3.57;;
8708;SDS011;4391;48.678;9.280;2023-05-29T02:59:58;7.90;;;3.70;;
8708;SDS011;4391;48.678;9.280;2023-05-29T03:02:25;10.05;;;3.47;;
8708;SDS011;4391;48.678;9.280;2023-05-29T03:04:52;8.02;;;3.70;;
8708;SDS011;4391;48.678;9.280;2023-05-29T03:07:19;10.32;;;3.53;;
8708;SDS011;4391;48.678;9.280;2023-05-29T03:09:46;9.27;;;3.60;;
8708;SDS011;4391;48.678;9.280;2023-05-29T03:12:14;9.35;;;3.63;;
8708;SDS011;4391;48.678;9.280;2023-05-29T03:14:41;11.00;;;3.90;;
8708;SDS011;4391;48.678;9.280;2023-05-29T03:17:08;8.95;;;3.38;;
8708;SDS011;4391;48.678;9.280;2023-05-29T03:19:35;9.13;;;3.63;;
8708;SDS011;4391;48.678;9.280;2023-05-29T03:22:03;8.97;;;3.07;;
8708;SDS011;4391;48.678;9.280;2023-05-29T03:24:30;8.77;;;3.03;;
8708;SDS011;4391;48.678;9.280;2023-05-29T03:27:00;13.57;;;3.63;;
8708;SDS011;4391;48.678;9.280;2023-05-29T03:29:29;9.93;;;3.22;;
8708;SDS011;4391;48.678;9.280;2023-05-29T03:31:56;10.77;;;3.80;;
8708;SDS011;4391;48.678;9.280;2023-05-29T03:34:23;10.07;;;3.87;;
8708;SDS011;4391;48.678;9.280;2023-05-29T03:36:50;8.15;;;3.42;;
8708;SDS011;4391;48.678;9.280;2023-05-29T03:39:17;8.80;;;3.17;;
8708;SDS011;4391;48.678;9.280;2023-05-29T03:41:43;8.05;;;3.35;;
8708;SDS011;4391;48.678;9.280;2023-05-29T03:44:10;7.43;;;3.40;;
8708;SDS011;4391;48.678;9.280;2023-05-29T03:46:38;8.17;;;3.43;;
8708;SDS011;4391;48.678;9.280;2023-05-29T03:49:05;11.80;;;3.75;;
8708;SDS011;4391;48.678;9.280;2023-05-29T03:51:32;11.55;;;4.05;;
8708;SDS011;4391;48.678;9.280;2023-05-29T03:54:00;8.93;;;3.90;;
8708;SDS011;4391;48.678;9.280;2023-05-29T03:56:27;9.88;;;4.15;;
8708;SDS011;4391;48.678;9.280;2023-05-29T03:58:54;8.90;;;3.37;;
8708;SDS011;4391;48.678;9.280;2023-05-29T04:01:21;8.63;;;3.65;;
8708;SDS011;4391;48.678;9.280;2023-05-29T04:03:49;8.45;;;3.50;;
8708;SDS011;4391;48.678;9.280;2023-05-29T04:06:16;11.15;;;3.55;;
8708;SDS011;4391;48.678;9.280;2023-05-29T04:08:43;10.13;;;4.07;;
8708;SDS011;4391;48.678;9.280;2023-05-29T04:11:09;8.77;;;3.90;;
8708;SDS011;4391;48.678;9.280;2023-05-29T04:13:39;8.27;;;3.95;;
8708;SDS011;4391;48.678;9.280;2023-05-29T04:16:06;10.25;;;4.18;;
8708;SDS011;4391;48.678;9.280;2023-05-29T04:18:33;9.95;;;4.40;;
8708;SDS011;4391;48.678;9.280;2023-05-29T04:21:01;7.65;;;3.55;;
8708;SDS011;4391;48.678;9.280;2023-05-29T04:23:28;8.70;;;3.20;;
8708;SDS011;4391;48.678;9.280;2023-05-29T04:25:55;9.05;;;3.92;;
8708;SDS011;4391;48.678;9.280;2023-05-29T04:28:22;7.40;;;3.13;;
8708;SDS011;4391;48.678;9.280;2023-05-29T04:30:49;8.50;;;3.33;;
8708;SDS011;4391;48.678;9.280;2023-05-29T04:33:17;9.65;;;3.70;;
8708;SDS011;4391;48.678;9.280;2023-05-29T04:35:46;9.47;;;3.40;;
8708;SDS011;4391;48.678;9.280;2023-05-29T04:38:14;11.00;;;4.00;;
8708;SDS011;4391;48.678;9.280;2023-05-29T04:40:41;9.38;;;3.72;;
8708;SDS011;4391;48.678;9.280;2023-05-29T04:43:09;9.32;;;3.40;;
8708;SDS011;4391;48.678;9.280;2023-05-29T04:45:36;8.27;;;3.63;;
8708;SDS011;4391;48.678;9.280;2023-05-29T04:48:03;10.83;;;3.20;;
8708;SDS011;4391;48.678;9.280;2023-05-29T04:50:30;13.45;;;4.43;;
8708;SDS011;4391;48.678;9.280;2023-05-29T04:52:57;9.90;;;4.32;;
8708;SDS011;4391;48.678;9.280;2023-05-29T04:55:25;11.98;;;4.20;;
8708;SDS011;4391;48.678;9.280;2023-05-29T04:57:52;8.80;;;4.10;;
8708;SDS011;4391;48.678;9.280;2023-05-29T05:00:19;8.07;;;3.83;;
8708;SDS011;4391;48.678;9.280;2023-05-29T05:02:47;10.73;;;3.67;;
8708;SDS011;4391;48.678;9.280;2023-05-29T05:05:15;10.50;;;4.03;;
8708;SDS011;4391;48.678;9.280;2023-05-29T05:07:42;13.00;;;4.00;;
8708;SDS011;4391;48.678;9.280;2023-05-29T05:10:09;7.95;;;3.53;;
8708;SDS011;4391;48.678;9.280;2023-05-29T05:12:38;10.63;;;4.47;;
8708;SDS011;4391;48.678;9.280;2023-05-29T05:15:05;10.13;;;3.75;;
8708;SDS011;4391;48.678;9.280;2023-05-29T05:17:33;9.68;;;3.53;;
8708;SDS011;4391;48.678;9.280;2023-05-29T05:20:00;11.80;;;4.05;;
8708;SDS011;4391;48.678;9.280;2023-05-29T05:22:29;11.25;;;4.28;;
8708;SDS011;4391;48.678;9.280;2023-05-29T05:24:56;9.97;;;4.17;;
8708;SDS011;4391;48.678;9.280;2023-05-29T05:27:24;12.25;;;4.15;;
8708;SDS011;4391;48.678;9.280;2023-05-29T05:29:52;11.27;;;4.38;;
8708;SDS011;4391;48.678;9.280;2023-05-29T05:32:19;11.05;;;3.65;;
8708;SDS011;4391;48.678;9.280;2023-05-29T05:34:46;9.05;;;3.72;;
8708;SDS011;4391;48.678;9.280;2023-05-29T05:37:13;10.87;;;3.73;;
8708;SDS011;4391;48.678;9.280;2023-05-29T05:39:39;10.30;;;3.85;;
8708;SDS011;4391;48.678;9.280;2023-05-29T05:42:06;10.48;;;3.88;;
8708;SDS011;4391;48.678;9.280;2023-05-29T05:44:33;12.80;;;3.92;;
8708;SDS011;4391;48.678;9.280;2023-05-29T05:47:02;10.10;;;4.20;;
8708;SDS011;4391;48.678;9.280;2023-05-29T05:49:29;13.00;;;4.00;;
8708;SDS011;4391;48.678;9.280;2023-05-29T05:51:55;13.73;;;3.80;;
8708;SDS011;4391;48.678;9.280;2023-05-29T05:54:22;10.18;;;3.65;;
8708;SDS011;4391;48.678;9.280;2023-05-29T05:56:49;11.18;;;4.10;;
8708;SDS011;4391;48.678;9.280;2023-05-29T05:59:16;13.25;;;4.03;;
8708;SDS011;4391;48.678;9.280;2023-05-29T06:01:43;8.33;;;3.97;;
8708;SDS011;4391;48.678;9.280;2023-05-29T06:04:11;9.60;;;3.80;;
8708;SDS011;4391;48.678;9.280;2023-05-29T06:06:38;9.20;;;4.00;;
8708;SDS011;4391;48.678;9.280;2023-05-29T06:09:05;11.40;;;4.15;;
8708;SDS011;4391;48.678;9.280;2023-05-29T06:11:31;12.55;;;4.10;;
8708;SDS011;4391;48.678;9.280;2023-05-29T06:13:58;11.17;;;4.40;;
8708;SDS011;4391;48.678;9.280;2023-05-29T06:16:26;10.23;;;3.78;;
8708;SDS011;4391;48.678;9.280;2023-05-29T06:18:52;11.13;;;4.40;;
8708;SDS011;4391;48.678;9.280;2023-05-29T06:21:21;10.80;;;3.70;;
8708;SDS011;4391;48.678;9.280;2023-05-29T06:23:48;13.32;;;4.50;;
8708;SDS011;4391;48.678;9.280;2023-05-29T06:26:15;9.67;;;3.93;;
8708;SDS011;4391;48.678;9.280;2023-05-29T06:28:42;9.98;;;4.15;;
8708;SDS011;4391;48.678;9.280;2023-05-29T06:31:08;10.63;;;3.72;;
8708;SDS011;4391;48.678;9.280;2023-05-29T06:33:35;10.48;;;4.35;;
8708;SDS011;4391;48.678;9.280;2023-05-29T06:36:03;10.80;;;4.35;;
8708;SDS011;4391;48.678;9.280;2023-05-29T06:38:31;15.07;;;4.57;;
8708;SDS011;4391;48.678;9.280;2023-05-29T06:40:58;9.25;;;4.13;;
8708;SDS011;4391;48.678;9.280;2023-05-29T06:43:25;8.60;;;4.07;;
8708;SDS011;4391;48.678;9.280;2023-05-29T06:45:53;9.88;;;4.22;;
8708;SDS011;4391;48.678;9.280;2023-05-29T06:48:19;10.70;;;3.95;;
8708;SDS011;4391;48.678;9.280;2023-05-29T06:50:47;9.83;;;3.93;;
8708;SDS011;4391;48.678;9.280;2023-05-29T06:53:14;10.82;;;3.67;;
8708;SDS011;4391;48.678;9.280;2023-05-29T06:55:42;8.77;;;3.90;;
8708;SDS011;4391;48.678;9.280;2023-05-29T06:58:09;8.07;;;3.63;;
8708;SDS011;4391;48.678;9.280;2023-05-29T07:00:35;11.30;;;3.60;;
8708;SDS011;4391;48.678;9.280;2023-05-29T07:03:02;11.30;;;3.43;;
8708;SDS011;4391;48.678;9.280;2023-05-29T07:05:29;8.63;;;3.65;;
8708;SDS011;4391;48.678;9.280;2023-05-29T07:07:56;13.75;;;3.75;;
8708;SDS011;4391;48.678;9.280;2023-05-29T07:10:23;8.98;;;3.75;;
8708;SDS011;4391;48.678;9.280;2023-05-29T07:12:51;10.15;;;3.92;;
8708;SDS011;4391;48.678;9.280;2023-05-29T07:15:18;8.07;;;3.50;;
8708;SDS011;4391;48.678;9.280;2023-05-29T07:17:45;8.77;;;3.67;;
8708;SDS011;4391;48.678;9.280;2023-05-29T07:20:12;9.98;;;3.70;;
8708;SDS011;4391;48.678;9.280;2023-05-29T07:22:40;8.25;;;3.60;;
8708;SDS011;4391;48.678;9.280;2023-05-29T07:25:07;8.73;;;3.28;;
8708;SDS011;4391;48.678;9.280;2023-05-29T07:27:34;9.97;;;3.53;;
8708;SDS011;4391;48.678;9.280;2023-05-29T07:30:03;8.95;;;3.25;;
8708;SDS011;4391;48.678;9.280;2023-05-29T07:32:32;8.13;;;3.17;;
8708;SDS011;4391;48.678;9.280;2023-05-29T07:35:00;8.73;;;3.55;;
8708;SDS011;4391;48.678;9.280;2023-05-29T07:37:26;7.22;;;3.60;;
8708;SDS011;4391;48.678;9.280;2023-05-29T07:39:55;10.43;;;3.60;;
8708;SDS011;4391;48.678;9.280;2023-05-29T07:42:21;9.10;;;3.20;;
8708;SDS011;4391;48.678;9.280;2023-05-29T07:44:48;7.93;;;3.65;;
8708;SDS011;4391;48.678;9.280;2023-05-29T07:47:17;12.75;;;2.85;;
8708;SDS011;4391;48.678;9.280;2023-05-29T07:49:43;7.25;;;3.00;;
8708;SDS011;4391;48.678;9.280;2023-05-29T07:52:10;7.83;;;3.30;;
8708;SDS011;4391;48.678;9.280;2023-05-29T07:54:37;8.40;;;3.58;;
8708;SDS011;4391;48.678;9.280;2023-05-29T07:57:04;7.72;;;3.45;;
8708;SDS011;4391;48.678;9.280;2023-05-29T07:59:34;10.63;;;3.75;;
8708;SDS011;4391;48.678;9.280;2023-05-29T08:02:01;9.68;;;3.55;;
8708;SDS011;4391;48.678;9.280;2023-05-29T08:04:30;7.93;;;2.77;;
8708;SDS011;4391;48.678;9.280;2023-05-29T08:06:57;9.10;;;3.28;;
8708;SDS011;4391;48.678;9.280;2023-05-29T08:09:24;6.80;;;3.25;;
8708;SDS011;4391;48.678;9.280;2023-05-29T08:11:51;9.35;;;3.50;;
8708;SDS011;4391;48.678;9.280;2023-05-29T08:14:18;6.78;;;3.13;;
8708;SDS011;4391;48.678;9.280;2023-05-29T08:16:44;6.63;;;3.03;;
8708;SDS011;4391;48.678;9.280;2023-05-29T08:19:11;9.45;;;2.90;;
8708;SDS011;4391;48.678;9.280;2023-05-29T08:21:40;8.32;;;3.35;;
8708;SDS011;4391;48.678;9.280;2023-05-29T08:24:06;8.50;;;3.42;;
8708;SDS011;4391;48.678;9.280;2023-05-29T08:26:34;10.38;;;3.60;;
8708;SDS011;4391;48.678;9.280;2023-05-29T08:29:01;8.93;;;2.97;;
8708;SDS011;4391;48.678;9.280;2023-05-29T08:31:29;9.18;;;3.30;;
8708;SDS011;4391;48.678;9.280;2023-05-29T08:33:56;8.73;;;3.10;;
8708;SDS011;4391;48.678;9.280;2023-05-29T08:36:24;9.63;;;3.50;;
8708;SDS011;4391;48.678;9.280;2023-05-29T08:38:52;8.48;;;3.15;;
8708;SDS011;4391;48.678;9.280;2023-05-29T08:41:21;8.30;;;3.40;;
8708;SDS011;4391;48.678;9.280;2023-05-29T08:43:51;7.95;;;2.83;;
8708;SDS011;4391;48.678;9.280;2023-05-29T08:46:19;6.70;;;3.00;;
8708;SDS011;4391;48.678;9.280;2023-05-29T08:48:47;9.65;;;3.42;;
8708;SDS011;4391;48.678;9.280;2023-05-29T08:51:16;7.18;;;2.95;;
8708;SDS011;4391;48.678;9.280;2023-05-29T08:53:46;6.27;;;3.30;;
8708;SDS011;4391;48.678;9.280;2023-05-29T08:56:14;9.75;;;3.25;;
8708;SDS011;4391;48.678;9.280;2023-05-29T08:58:41;10.95;;;3.17;;
8708;SDS011;4391;48.678;9.280;2023-05-29T09:01:10;6.68;;;3.13;;
8708;SDS011;4391;48.678;9.280;2023-05-29T09:03:37;9.20;;;3.50;;
8708;SDS011;4391;48.678;9.280;2023-05-29T09:06:04;7.43;;;3.10;;
8708;SDS011;4391;48.678;9.280;2023-05-29T09:08:32;6.95;;;2.97;;
8708;SDS011;4391;48.678;9.280;2023-05-29T09:10:59;7.70;;;3.20;;
8708;SDS011;4391;48.678;9.280;2023-05-29T09:13:27;6.68;;;3.03;;
8708;SDS011;4391;48.678;9.280;2023-05-29T09:15:56;8.70;;;3.45;;
8708;SDS011;4391;48.678;9.280;2023-05-29T09:18:27;6.93;;;2.97;;
8708;SDS011;4391;48.678;9.280;2023-05-29T09:20:55;7.75;;;3.40;;
8708;SDS011;4391;48.678;9.280;2023-05-29T09:23:22;7.10;;;3.33;;
8708;SDS011;4391;48.678;9.280;2023-05-29T09:25:52;6.38;;;2.88;;
8708;SDS011;4391;48.678;9.280;2023-05-29T09:28:20;10.00;;;3.10;;
8708;SDS011;4391;48.678;9.280;2023-05-29T09:30:51;6.73;;;2.80;;
8708;SDS011;4391;48.678;9.280;2023-05-29T09:33:18;7.13;;;3.20;;
8708;SDS011;4391;48.678;9.280;2023-05-29T09:35:46;8.13;;;3.17;;
8708;SDS011;4391;48.678;9.280;2023-05-29T09:38:14;6.80;;;3.20;;
8708;SDS011;4391;48.678;9.280;2023-05-29T09:40:42;7.47;;;3.60;;
8708;SDS011;4391;48.678;9.280;2023-05-29T09:43:11;7.10;;;3.60;;
8708;SDS011;4391;48.678;9.280;2023-05-29T09:45:39;8.83;;;3.30;;
8708;SDS011;4391;48.678;9.280;2023-05-29T09:48:11;6.30;;;3.08;;
8708;SDS011;4391;48.678;9.280;2023-05-29T09:50:39;6.47;;;3.47;;
8708;SDS011;4391;48.678;9.280;2023-05-29T09:53:15;6.53;;;2.58;;
8708;SDS011;4391;48.678;9.280;2023-05-29T09:55:44;6.90;;;2.90;;
8708;SDS011;4391;48.678;9.280;2023-05-29T09:58:11;8.17;;;2.60;;
8708;SDS011;4391;48.678;9.280;2023-05-29T10:00:40;7.60;;;2.60;;
8708;SDS011;4391;48.678;9.280;2023-05-29T10:03:09;7.68;;;2.60;;
8708;SDS011;4391;48.678;9.280;2023-05-29T10:05:38;8.35;;;2.63;;
8708;SDS011;4391;48.678;9.280;2023-05-29T10:08:05;7.13;;;2.60;;
8708;SDS011;4391;48.678;9.280;2023-05-29T10:10:34;6.67;;;2.40;;
8708;SDS011;4391;48.678;9.280;2023-05-29T10:13:03;6.93;;;2.60;;
8708;SDS011;4391;48.678;9.280;2023-05-29T10:15:32;7.65;;;2.38;;
8708;SDS011;4391;48.678;9.280;2023-05-29T10:18:01;5.97;;;2.78;;
8708;SDS011;4391;48.678;9.280;2023-05-29T10:20:31;5.47;;;2.40;;
8708;SDS011;4391;48.678;9.280;2023-05-29T10:23:01;7.25;;;2.85;;
8708;SDS011;4391;48.678;9.280;2023-05-29T10:25:29;9.85;;;2.70;;
8708;SDS011;4391;48.678;9.280;2023-05-29T10:27:58;7.53;;;2.70;;
8708;SDS011;4391;48.678;9.280;2023-05-29T10:30:28;5.80;;;2.53;;
8708;SDS011;4391;48.678;9.280;2023-05-29T10:33:08;6.10;;;2.25;;
8708;SDS011;4391;48.678;9.280;2023-05-29T10:35:51;6.57;;;2.55;;
8708;SDS011;4391;48.678;9.280;2023-05-29T10:38:25;7.30;;;2.13;;
8708;SDS011;4391;48.678;9.280;2023-05-29T10:40:52;7.10;;;2.55;;
8708;SDS011;4391;48.678;9.280;2023-05-29T10:43:32;7.25;;;2.88;;
8708;SDS011;4391;48.678;9.280;2023-05-29T10:46:00;8.20;;;3.00;;
8708;SDS011;4391;48.678;9.280;2023-05-29T10:48:37;5.80;;;2.67;;
8708;SDS011;4391;48.678;9.280;2023-05-29T10:51:16;6.22;;;2.40;;
8708;SDS011;4391;48.678;9.280;2023-05-29T10:53:50;5.77;;;2.50;;
8708;SDS011;4391;48.678;9.280;2023-05-29T10:56:20;5.20;;;2.50;;
8708;SDS011;4391;48.678;9.280;2023-05-29T10:58:53;6.18;;;2.20;;
8708;SDS011;4391;48.678;9.280;2023-05-29T11:01:21;8.13;;;2.80;;
8708;SDS011;4391;48.678;9.280;2023-05-29T11:03:49;6.20;;;2.42;;
8708;SDS011;4391;48.678;9.280;2023-05-29T11:06:19;6.20;;;2.63;;
8708;SDS011;4391;48.678;9.280;2023-05-29T11:08:52;8.57;;;2.70;;
8708;SDS011;4391;48.678;9.280;2023-05-29T11:11:28;7.95;;;2.75;;
8708;SDS011;4391;48.678;9.280;2023-05-29T11:13:57;6.18;;;2.38;;
8708;SDS011;4391;48.678;9.280;2023-05-29T11:16:37;6.07;;;2.55;;
8708;SDS011;4391;48.678;9.280;2023-05-29T11:19:04;6.37;;;2.30;;
8708;SDS011;4391;48.678;9.280;2023-05-29T11:21:37;8.17;;;2.60;;
8708;SDS011;4391;48.678;9.280;2023-05-29T11:24:14;10.02;;;2.90;;
8708;SDS011;4391;48.678;9.280;2023-05-29T11:26:45;6.82;;;2.72;;
8708;SDS011;4391;48.678;9.280;2023-05-29T11:29:12;6.10;;;2.42;;
8708;SDS011;4391;48.678;9.280;2023-05-29T11:31:40;5.85;;;2.53;;
8708;SDS011;4391;48.678;9.280;2023-05-29T11:34:08;6.68;;;2.40;;
8708;SDS011;4391;48.678;9.280;2023-05-29T11:36:41;7.25;;;2.25;;
8708;SDS011;4391;48.678;9.280;2023-05-29T11:39:08;9.57;;;2.60;;
8708;SDS011;4391;48.678;9.280;2023-05-29T11:41:35;7.55;;;2.28;;
8708;SDS011;4391;48.678;9.280;2023-05-29T11:44:02;7.00;;;2.50;;
8708;SDS011;4391;48.678;9.280;2023-05-29T11:46:31;5.87;;;2.33;;
8708;SDS011;4391;48.678;9.280;2023-05-29T11:48:59;6.30;;;2.42;;
8708;SDS011;4391;48.678;9.280;2023-05-29T11:51:26;5.53;;;2.10;;
8708;SDS011;4391;48.678;9.280;2023-05-29T11:53:55;5.25;;;2.10;;
8708;SDS011;4391;48.678;9.280;2023-05-29T11:56:24;7.07;;;2.45;;
8708;SDS011;4391;48.678;9.280;2023-05-29T11:58:51;5.75;;;2.28;;
8708;SDS011;4391;48.678;9.280;2023-05-29T12:01:21;7.88;;;2.28;;
8708;SDS011;4391;48.678;9.280;2023-05-29T12:03:50;6.23;;;2.20;;
8708;SDS011;4391;48.678;9.280;2023-05-29T12:06:29;5.53;;;2.10;;
8708;SDS011;4391;48.678;9.280;2023-05-29T12:08:58;6.68;;;2.22;;
8708;SDS011;4391;48.678;9.280;2023-05-29T12:11:26;7.22;;;2.13;;
8708;SDS011;4391;48.678;9.280;2023-05-29T12:13:55;6.07;;;2.28;;
8708;SDS011;4391;48.678;9.280;2023-05-29T12:16:22;6.40;;;2.00;;
8708;SDS011;4391;48.678;9.280;2023-05-29T12:18:51;6.15;;;2.10;;
8708;SDS011;4391;48.678;9.280;2023-05-29T12:21:18;5.38;;;2.25;;
8708;SDS011;4391;48.678;9.280;2023-05-29T12:23:47;6.57;;;2.40;;
8708;SDS011;4391;48.678;9.280;2023-05-29T12:26:15;5.90;;;1.90;;
8708;SDS011;4391;48.678;9.280;2023-05-29T12:28:42;5.50;;;2.15;;
8708;SDS011;4391;48.678;9.280;2023-05-29T12:31:10;5.65;;;2.00;;
8708;SDS011;4391;48.678;9.280;2023-05-29T12:33:40;5.07;;;2.20;;
8708;SDS011;4391;48.678;9.280;2023-05-29T12:36:09;6.70;;;2.20;;
8708;SDS011;4391;48.678;9.280;2023-05-29T12:38:45;6.85;;;2.10;;
8708;SDS011;4391;48.678;9.280;2023-05-29T12:41:27;9.07;;;2.33;;
8708;SDS011;4391;48.678;9.280;2023-05-29T12:43:55;6.23;;;2.30;;
8708;SDS011;4391;48.678;9.280;2023-05-29T12:46:23;6.68;;;2.28;;
8708;SDS011;4391;48.678;9.280;2023-05-29T12:48:52;5.38;;;2.00;;
8708;SDS011;4391;48.678;9.280;2023-05-29T12:51:23;3.78;;;1.70;;
8708;SDS011;4391;48.678;9.280;2023-05-29T12:53:50;4.80;;;1.92;;
8708;SDS011;4391;48.678;9.280;2023-05-29T12:56:19;5.15;;;1.98;;
8708;SDS011;4391;48.678;9.280;2023-05-29T12:58:49;6.15;;;2.15;;
8708;SDS011;4391;48.678;9.280;2023-05-29T13:01:17;4.53;;;1.90;;
8708;SDS011;4391;48.678;9.280;2023-05-29T13:03:44;4.45;;;2.00;;
8708;SDS011;4391;48.678;9.280;2023-05-29T13:06:11;5.88;;;1.90;;
8708;SDS011;4391;48.678;9.280;2023-05-29T13:08:38;8.15;;;2.25;;
8708;SDS011;4391;48.678;9.280;2023-05-29T13:11:04;5.20;;;2.10;;
8708;SDS011;4391;48.678;9.280;2023-05-29T13:13:31;6.68;;;2.05;;
8708;SDS011;4391;48.678;9.280;2023-05-29T13:15:59;7.28;;;2.35;;
8708;SDS011;4391;48.678;9.280;2023-05-29T13:18:26;5.90;;;2.05;;
8708;SDS011;4391;48.678;9.280;2023-05-29T13:20:54;6.03;;;2.23;;
8708;SDS011;4391;48.678;9.280;2023-05-29T13:23:21;4.65;;;2.20;;
8708;SDS011;4391;48.678;9.280;2023-05-29T13:25:48;6.03;;;2.03;;
8708;SDS011;4391;48.678;9.280;2023-05-29T13:28:15;5.38;;;2.20;;
8708;SDS011;4391;48.678;9.280;2023-05-29T13:30:43;6.85;;;2.10;;
8708;SDS011;4391;48.678;9.280;2023-05-29T13:33:11;5.53;;;1.98;;
8708;SDS011;4391;48.678;9.280;2023-05-29T13:35:38;7.10;;;2.37;;
8708;SDS011;4391;48.678;9.280;2023-05-29T13:38:05;6.43;;;2.13;;
8708;SDS011;4391;48.678;9.280;2023-05-29T13:40:32;6.38;;;2.20;;
8708;SDS011;4391;48.678;9.280;2023-05-29T13:42:59;4.43;;;2.10;;
8708;SDS011;4391;48.678;9.280;2023-05-29T13:45:25;6.30;;;2.00;;
8708;SDS011;4391;48.678;9.280;2023-05-29T13:47:53;6.22;;;2.33;;
8708;SDS011;4391;48.678;9.280;2023-05-29T13:50:21;5.32;;;2.38;;
8708;SDS011;4391;48.678;9.280;2023-05-29T13:52:49;5.55;;;2.20;;
8708;SDS011;4391;48.678;9.280;2023-05-29T13:55:16;5.27;;;2.07;;
8708;SDS011;4391;48.678;9.280;2023-05-29T13:57:43;6.27;;;2.20;;
8708;SDS011;4391;48.678;9.280;2023-05-29T14:00:10;7.63;;;2.20;;
8708;SDS011;4391;48.678;9.280;2023-05-29T14:02:38;5.22;;;2.20;;
8708;SDS011;4391;48.678;9.280;2023-05-29T14:05:05;4.93;;;2.17;;
8708;SDS011;4391;48.678;9.280;2023-05-29T14:07:34;6.05;;;2.10;;
8708;SDS011;4391;48.678;9.280;2023-05-29T14:10:02;6.38;;;2.47;;
8708;SDS011;4391;48.678;9.280;2023-05-29T14:12:32;5.80;;;2.40;;
8708;SDS011;4391;48.678;9.280;2023-05-29T14:15:00;5.30;;;2.23;;
8708;SDS011;4391;48.678;9.280;2023-05-29T14:17:27;4.97;;;2.38;;
8708;SDS011;4391;48.678;9.280;2023-05-29T14:19:55;4.88;;;2.05;;
8708;SDS011;4391;48.678;9.280;2023-05-29T14:22:23;4.70;;;2.38;;
8708;SDS011;4391;48.678;9.280;2023-05-29T14:24:52;4.85;;;2.40;;
8708;SDS011;4391;48.678;9.280;2023-05-29T14:27:21;5.82;;;2.35;;
8708;SDS011;4391;48.678;9.280;2023-05-29T14:29:49;5.88;;;2.63;;
8708;SDS011;4391;48.678;9.280;2023-05-29T14:32:17;5.15;;;2.20;;
8708;SDS011;4391;48.678;9.280;2023-05-29T14:34:45;8.60;;;2.90;;
8708;SDS011;4391;48.678;9.280;2023-05-29T14:37:15;5.28;;;2.10;;
8708;SDS011;4391;48.678;9.280;2023-05-29T14:39:49;5.38;;;2.08;;
8708;SDS011;4391;48.678;9.280;2023-05-29T14:42:18;6.95;;;2.47;;
8708;SDS011;4391;48.678;9.280;2023-05-29T14:44:46;5.95;;;2.20;;
8708;SDS011;4391;48.678;9.280;2023-05-29T14:47:13;5.55;;;2.47;;
8708;SDS011;4391;48.678;9.280;2023-05-29T14:49:43;6.88;;;2.33;;
8708;SDS011;4391;48.678;9.280;2023-05-29T14:52:11;5.40;;;2.60;;
8708;SDS011;4391;48.678;9.280;2023-05-29T14:54:43;6.30;;;2.70;;
8708;SDS011;4391;48.678;9.280;2023-05-29T14:57:24;4.97;;;2.73;;
8708;SDS011;4391;48.678;9.280;2023-05-29T14:59:51;6.23;;;2.60;;
8708;SDS011;4391;48.678;9.280;2023-05-29T15:02:18;6.40;;;2.67;;
8708;SDS011;4391;48.678;9.280;2023-05-29T15:04:45;5.50;;;2.50;;
8708;SDS011;4391;48.678;9.280;2023-05-29T15:07:12;7.22;;;2.45;;
8708;SDS011;4391;48.678;9.280;2023-05-29T15:09:39;6.07;;;2.47;;
8708;SDS011;4391;48.678;9.280;2023-05-29T15:12:06;6.35;;;2.95;;
8708;SDS011;4391;48.678;9.280;2023-05-29T15:14:35;6.83;;;2.70;;
8708;SDS011;4391;48.678;9.280;2023-05-29T15:17:02;6.80;;;2.80;;
8708;SDS011;4391;48.678;9.280;2023-05-29T15:19:30;6.70;;;2.40;;
8708;SDS011;4391;48.678;9.280;2023-05-29T15:21:58;5.95;;;2.60;;